sensor_id;sensor_type;location;lat;lon;timestamp;temperature;humidity
80412;SHT30;69749;42.684;23.360;2023-07-08T00:00:51;21.04;66.88
80412;SHT30;69749;42.684;23.360;2023-07-08T00:03:17;21.06;67.05
80412;SHT30;69749;42.684;23.360;2023-07-08T00:05:44;21.10;66.64
80412;SHT30;69749;42.684;23.360;2023-07-08T00:08:14;20.98;67.81
80412;SHT30;69749;42.684;23.360;2023-07-08T00:10:40;20.99;67.50
80412;SHT30;69749;42.684;23.360;2023-07-08T00:13:07;20.95;68.22
80412;SHT30;69749;42.684;23.360;2023-07-08T00:15:33;20.95;67.46
80412;SHT30;69749;42.684;23.360;2023-07-08T00:17:59;20.96;67.42
80412;SHT30;69749;42.684;23.360;2023-07-08T00:20:39;20.95;67.10
80412;SHT30;69749;42.684;23.360;2023-07-08T00:23:05;20.89;68.19
80412;SHT30;69749;42.684;23.360;2023-07-08T00:25:32;20.93;67.05
80412;SHT30;69749;42.684;23.360;2023-07-08T00:27:57;20.92;66.89
80412;SHT30;69749;42.684;23.360;2023-07-08T00:30:28;20.82;67.56
80412;SHT30;69749;42.684;23.360;2023-07-08T00:32:54;20.72;67.59
80412;SHT30;69749;42.684;23.360;2023-07-08T00:37:57;20.61;68.22
80412;SHT30;69749;42.684;23.360;2023-07-08T00:40:37;20.56;68.03
80412;SHT30;69749;42.684;23.360;2023-07-08T00:43:05;20.52;69.20
80412;SHT30;69749;42.684;23.360;2023-07-08T00:45:37;20.55;68.87
80412;SHT30;69749;42.684;23.360;2023-07-08T00:48:14;20.54;68.29
80412;SHT30;69749;42.684;23.360;2023-07-08T00:50:40;20.61;67.97
80412;SHT30;69749;42.684;23.360;2023-07-08T00:55:52;20.52;68.94
80412;SHT30;69749;42.684;23.360;2023-07-08T00:58:21;20.59;68.46
80412;SHT30;69749;42.684;23.360;2023-07-08T01:00:48;20.62;68.43
80412;SHT30;69749;42.684;23.360;2023-07-08T01:03:15;20.67;67.70
80412;SHT30;69749;42.684;23.360;2023-07-08T01:05:42;20.62;67.75
80412;SHT30;69749;42.684;23.360;2023-07-08T01:08:09;20.61;67.82
80412;SHT30;69749;42.684;23.360;2023-07-08T01:10:43;20.55;67.76
80412;SHT30;69749;42.684;23.360;2023-07-08T01:13:10;20.52;68.03
80412;SHT30;69749;42.684;23.360;2023-07-08T01:15:43;20.47;67.76
80412;SHT30;69749;42.684;23.360;2023-07-08T01:18:12;20.47;68.19
80412;SHT30;69749;42.684;23.360;2023-07-08T01:20:41;20.45;68.37
80412;SHT30;69749;42.684;23.360;2023-07-08T01:23:07;20.35;68.25
80412;SHT30;69749;42.684;23.360;2023-07-08T01:25:33;20.30;68.96
80412;SHT30;69749;42.684;23.360;2023-07-08T01:27:58;20.31;68.75
80412;SHT30;69749;42.684;23.360;2023-07-08T01:30:25;20.33;68.59
80412;SHT30;69749;42.684;23.360;2023-07-08T01:32:55;20.33;68.56
80412;SHT30;69749;42.684;23.360;2023-07-08T01:35:22;20.24;68.99
80412;SHT30;69749;42.684;23.360;2023-07-08T01:37:57;20.28;68.81
80412;SHT30;69749;42.684;23.360;2023-07-08T01:42:52;20.28;69.31
80412;SHT30;69749;42.684;23.360;2023-07-08T01:45:19;20.25;68.43
80412;SHT30;69749;42.684;23.360;2023-07-08T01:47:50;20.25;68.77
80412;SHT30;69749;42.684;23.360;2023-07-08T01:50:17;20.23;69.44
80412;SHT30;69749;42.684;23.360;2023-07-08T01:52:43;20.24;69.05
80412;SHT30;69749;42.684;23.360;2023-07-08T01:55:09;20.27;69.15
80412;SHT30;69749;42.684;23.360;2023-07-08T01:57:34;20.31;68.49
80412;SHT30;69749;42.684;23.360;2023-07-08T01:59:59;20.33;68.13
80412;SHT30;69749;42.684;23.360;2023-07-08T02:02:25;20.28;68.70
80412;SHT30;69749;42.684;23.360;2023-07-08T02:04:50;20.24;69.04
80412;SHT30;69749;42.684;23.360;2023-07-08T02:07:16;20.23;69.20
80412;SHT30;69749;42.684;23.360;2023-07-08T02:09:41;20.24;68.48
80412;SHT30;69749;42.684;23.360;2023-07-08T02:12:07;20.21;68.91
80412;SHT30;69749;42.684;23.360;2023-07-08T02:14:33;20.21;68.89
80412;SHT30;69749;42.684;23.360;2023-07-08T02:16:58;20.23;68.99
80412;SHT30;69749;42.684;23.360;2023-07-08T02:19:24;20.28;68.48
80412;SHT30;69749;42.684;23.360;2023-07-08T02:21:50;20.24;68.53
80412;SHT30;69749;42.684;23.360;2023-07-08T02:24:17;20.35;67.72
80412;SHT30;69749;42.684;23.360;2023-07-08T02:26:43;20.25;68.67
80412;SHT30;69749;42.684;23.360;2023-07-08T02:29:08;20.27;68.70
80412;SHT30;69749;42.684;23.360;2023-07-08T02:31:33;20.25;68.35
80412;SHT30;69749;42.684;23.360;2023-07-08T02:33:59;20.14;68.69
80412;SHT30;69749;42.684;23.360;2023-07-08T02:36:26;20.12;68.60
80412;SHT30;69749;42.684;23.360;2023-07-08T02:38:52;20.07;69.30
80412;SHT30;69749;42.684;23.360;2023-07-08T02:41:17;20.04;69.56
80412;SHT30;69749;42.684;23.360;2023-07-08T02:43:42;20.06;68.73
80412;SHT30;69749;42.684;23.360;2023-07-08T02:46:08;20.09;69.04
80412;SHT30;69749;42.684;23.360;2023-07-08T02:48:33;20.13;68.18
80412;SHT30;69749;42.684;23.360;2023-07-08T02:51:03;20.10;68.50
80412;SHT30;69749;42.684;23.360;2023-07-08T02:53:29;20.00;69.11
80412;SHT30;69749;42.684;23.360;2023-07-08T02:55:55;20.01;69.40
80412;SHT30;69749;42.684;23.360;2023-07-08T02:58:20;20.00;69.44
80412;SHT30;69749;42.684;23.360;2023-07-08T03:00:54;20.09;68.66
80412;SHT30;69749;42.684;23.360;2023-07-08T03:03:20;20.06;68.72
80412;SHT30;69749;42.684;23.360;2023-07-08T03:06:01;20.04;68.82
80412;SHT30;69749;42.684;23.360;2023-07-08T03:08:28;20.06;68.18
80412;SHT30;69749;42.684;23.360;2023-07-08T03:10:56;19.97;68.72
80412;SHT30;69749;42.684;23.360;2023-07-08T03:13:22;19.94;68.99
80412;SHT30;69749;42.684;23.360;2023-07-08T03:15:48;20.01;68.35
80412;SHT30;69749;42.684;23.360;2023-07-08T03:18:13;19.96;68.69
80412;SHT30;69749;42.684;23.360;2023-07-08T03:20:41;19.97;68.84
80412;SHT30;69749;42.684;23.360;2023-07-08T03:23:10;19.85;69.94
80412;SHT30;69749;42.684;23.360;2023-07-08T03:25:35;19.87;69.82
80412;SHT30;69749;42.684;23.360;2023-07-08T03:28:02;19.92;69.43
80412;SHT30;69749;42.684;23.360;2023-07-08T03:30:28;19.97;69.54
80412;SHT30;69749;42.684;23.360;2023-07-08T03:32:54;19.98;68.75
80412;SHT30;69749;42.684;23.360;2023-07-08T03:35:20;20.01;68.38
80412;SHT30;69749;42.684;23.360;2023-07-08T03:37:47;19.96;69.39
80412;SHT30;69749;42.684;23.360;2023-07-08T03:40:13;20.01;68.93
80412;SHT30;69749;42.684;23.360;2023-07-08T03:42:39;20.06;68.86
80412;SHT30;69749;42.684;23.360;2023-07-08T03:45:04;20.07;68.79
80412;SHT30;69749;42.684;23.360;2023-07-08T03:47:30;20.07;68.65
80412;SHT30;69749;42.684;23.360;2023-07-08T03:49:55;20.06;68.83
80412;SHT30;69749;42.684;23.360;2023-07-08T03:52:21;20.03;69.56
80412;SHT30;69749;42.684;23.360;2023-07-08T03:54:46;20.09;69.24
80412;SHT30;69749;42.684;23.360;2023-07-08T03:57:12;20.12;69.23
80412;SHT30;69749;42.684;23.360;2023-07-08T03:59:37;20.23;68.93
80412;SHT30;69749;42.684;23.360;2023-07-08T04:02:03;20.27;68.86
80412;SHT30;69749;42.684;23.360;2023-07-08T04:04:29;20.34;68.35
80412;SHT30;69749;42.684;23.360;2023-07-08T04:06:54;20.35;68.57
80412;SHT30;69749;42.684;23.360;2023-07-08T04:09:20;20.35;68.20
80412;SHT30;69749;42.684;23.360;2023-07-08T04:11:45;20.31;68.68
80412;SHT30;69749;42.684;23.360;2023-07-08T04:14:11;20.38;68.45
80412;SHT30;69749;42.684;23.360;2023-07-08T04:16:49;20.40;68.83
80412;SHT30;69749;42.684;23.360;2023-07-08T04:19:16;20.49;68.11
80412;SHT30;69749;42.684;23.360;2023-07-08T04:21:43;20.59;67.95
80412;SHT30;69749;42.684;23.360;2023-07-08T04:24:11;20.69;66.75
80412;SHT30;69749;42.684;23.360;2023-07-08T04:26:37;20.67;67.56
80412;SHT30;69749;42.684;23.360;2023-07-08T04:29:11;20.79;67.66
80412;SHT30;69749;42.684;23.360;2023-07-08T04:31:36;21.00;65.78
80412;SHT30;69749;42.684;23.360;2023-07-08T04:34:02;21.10;65.96
80412;SHT30;69749;42.684;23.360;2023-07-08T04:36:27;21.16;66.58
80412;SHT30;69749;42.684;23.360;2023-07-08T04:38:53;21.36;65.99
80412;SHT30;69749;42.684;23.360;2023-07-08T04:41:18;21.41;65.81
80412;SHT30;69749;42.684;23.360;2023-07-08T04:43:44;21.57;63.80
80412;SHT30;69749;42.684;23.360;2023-07-08T04:46:33;21.67;64.06
80412;SHT30;69749;42.684;23.360;2023-07-08T04:49:03;21.78;63.77
80412;SHT30;69749;42.684;23.360;2023-07-08T04:51:30;21.78;64.26
80412;SHT30;69749;42.684;23.360;2023-07-08T04:53:55;21.95;63.82
80412;SHT30;69749;42.684;23.360;2023-07-08T04:56:21;22.11;63.43
80412;SHT30;69749;42.684;23.360;2023-07-08T04:58:47;22.29;61.68
80412;SHT30;69749;42.684;23.360;2023-07-08T05:01:12;22.40;62.19
80412;SHT30;69749;42.684;23.360;2023-07-08T05:03:38;22.35;62.19
80412;SHT30;69749;42.684;23.360;2023-07-08T05:06:03;22.52;61.28
80412;SHT30;69749;42.684;23.360;2023-07-08T05:08:29;22.56;61.29
80412;SHT30;69749;42.684;23.360;2023-07-08T05:10:55;22.52;60.32
80412;SHT30;69749;42.684;23.360;2023-07-08T05:13:21;22.56;60.85
80412;SHT30;69749;42.684;23.360;2023-07-08T05:15:48;22.66;61.22
80412;SHT30;69749;42.684;23.360;2023-07-08T05:18:14;22.74;59.85
80412;SHT30;69749;42.684;23.360;2023-07-08T05:20:39;22.81;60.65
80412;SHT30;69749;42.684;23.360;2023-07-08T05:23:05;22.98;60.66
80412;SHT30;69749;42.684;23.360;2023-07-08T05:25:32;23.11;59.29
80412;SHT30;69749;42.684;23.360;2023-07-08T05:27:58;23.19;59.76
80412;SHT30;69749;42.684;23.360;2023-07-08T05:30:23;23.38;58.50
80412;SHT30;69749;42.684;23.360;2023-07-08T05:32:49;23.49;58.13
80412;SHT30;69749;42.684;23.360;2023-07-08T05:35:15;23.48;58.07
80412;SHT30;69749;42.684;23.360;2023-07-08T05:37:40;23.35;57.73
80412;SHT30;69749;42.684;23.360;2023-07-08T05:40:07;23.38;59.03
80412;SHT30;69749;42.684;23.360;2023-07-08T05:42:33;23.37;57.74
80412;SHT30;69749;42.684;23.360;2023-07-08T05:44:58;23.21;58.76
80412;SHT30;69749;42.684;23.360;2023-07-08T05:47:24;23.07;58.06
80412;SHT30;69749;42.684;23.360;2023-07-08T05:49:50;23.14;58.02
80412;SHT30;69749;42.684;23.360;2023-07-08T05:52:15;23.31;58.28
80412;SHT30;69749;42.684;23.360;2023-07-08T05:54:41;23.37;58.19
80412;SHT30;69749;42.684;23.360;2023-07-08T05:57:09;23.34;57.60
80412;SHT30;69749;42.684;23.360;2023-07-08T05:59:35;23.55;57.75
80412;SHT30;69749;42.684;23.360;2023-07-08T06:02:02;23.67;57.09
80412;SHT30;69749;42.684;23.360;2023-07-08T06:04:28;23.70;56.53
80412;SHT30;69749;42.684;23.360;2023-07-08T06:06:53;23.61;56.16
80412;SHT30;69749;42.684;23.360;2023-07-08T06:09:19;23.58;56.49
80412;SHT30;69749;42.684;23.360;2023-07-08T06:11:44;23.55;56.72
80412;SHT30;69749;42.684;23.360;2023-07-08T06:14:10;23.59;57.42
80412;SHT30;69749;42.684;23.360;2023-07-08T06:16:35;23.72;55.93
80412;SHT30;69749;42.684;23.360;2023-07-08T06:19:01;23.75;56.05
80412;SHT30;69749;42.684;23.360;2023-07-08T06:21:26;23.89;56.85
80412;SHT30;69749;42.684;23.360;2023-07-08T06:23:52;23.85;55.83
80412;SHT30;69749;42.684;23.360;2023-07-08T06:26:17;23.89;55.65
80412;SHT30;69749;42.684;23.360;2023-07-08T06:28:42;23.80;56.16
80412;SHT30;69749;42.684;23.360;2023-07-08T06:31:08;23.87;55.60
80412;SHT30;69749;42.684;23.360;2023-07-08T06:33:33;24.00;55.54
80412;SHT30;69749;42.684;23.360;2023-07-08T06:35:59;24.04;54.71
80412;SHT30;69749;42.684;23.360;2023-07-08T06:38:24;24.07;54.82
80412;SHT30;69749;42.684;23.360;2023-07-08T06:40:49;24.17;54.36
80412;SHT30;69749;42.684;23.360;2023-07-08T06:43:15;24.23;53.53
80412;SHT30;69749;42.684;23.360;2023-07-08T06:45:41;24.17;53.69
80412;SHT30;69749;42.684;23.360;2023-07-08T06:48:06;24.14;54.24
80412;SHT30;69749;42.684;23.360;2023-07-08T06:50:32;24.27;55.13
80412;SHT30;69749;42.684;23.360;2023-07-08T06:52:57;24.50;54.00
80412;SHT30;69749;42.684;23.360;2023-07-08T06:55:23;24.55;53.35
80412;SHT30;69749;42.684;23.360;2023-07-08T06:57:49;24.58;53.36
80412;SHT30;69749;42.684;23.360;2023-07-08T07:00:14;24.78;51.24
80412;SHT30;69749;42.684;23.360;2023-07-08T07:02:40;24.83;51.85
80412;SHT30;69749;42.684;23.360;2023-07-08T07:05:06;24.72;50.40
80412;SHT30;69749;42.684;23.360;2023-07-08T07:07:32;24.81;50.86
80412;SHT30;69749;42.684;23.360;2023-07-08T07:09:59;25.12;51.21
80412;SHT30;69749;42.684;23.360;2023-07-08T07:12:25;25.84;47.88
80412;SHT30;69749;42.684;23.360;2023-07-08T07:14:51;25.92;47.87
80412;SHT30;69749;42.684;23.360;2023-07-08T07:17:22;25.87;48.12
80412;SHT30;69749;42.684;23.360;2023-07-08T07:19:48;25.81;48.64
80412;SHT30;69749;42.684;23.360;2023-07-08T07:22:14;26.04;47.77
80412;SHT30;69749;42.684;23.360;2023-07-08T07:24:39;26.21;48.73
80412;SHT30;69749;42.684;23.360;2023-07-08T07:27:05;26.40;48.13
80412;SHT30;69749;42.684;23.360;2023-07-08T07:29:40;26.24;48.26
80412;SHT30;69749;42.684;23.360;2023-07-08T07:32:06;26.21;47.29
80412;SHT30;69749;42.684;23.360;2023-07-08T07:34:32;26.14;47.46
80412;SHT30;69749;42.684;23.360;2023-07-08T07:36:57;26.39;46.66
80412;SHT30;69749;42.684;23.360;2023-07-08T07:39:22;26.12;46.87
80412;SHT30;69749;42.684;23.360;2023-07-08T07:41:48;26.12;47.32
80412;SHT30;69749;42.684;23.360;2023-07-08T07:44:13;25.41;48.72
80412;SHT30;69749;42.684;23.360;2023-07-08T07:46:38;25.41;48.82
80412;SHT30;69749;42.684;23.360;2023-07-08T07:49:04;25.69;49.06
80412;SHT30;69749;42.684;23.360;2023-07-08T07:51:29;25.85;49.43
80412;SHT30;69749;42.684;23.360;2023-07-08T07:53:55;25.87;47.87
80412;SHT30;69749;42.684;23.360;2023-07-08T07:56:20;26.08;48.17
80412;SHT30;69749;42.684;23.360;2023-07-08T07:58:45;26.24;47.62
80412;SHT30;69749;42.684;23.360;2023-07-08T08:01:11;26.48;47.83
80412;SHT30;69749;42.684;23.360;2023-07-08T08:03:38;26.55;47.86
80412;SHT30;69749;42.684;23.360;2023-07-08T08:06:04;26.72;46.74
80412;SHT30;69749;42.684;23.360;2023-07-08T08:08:29;26.79;46.56
80412;SHT30;69749;42.684;23.360;2023-07-08T08:10:55;27.03;46.62
80412;SHT30;69749;42.684;23.360;2023-07-08T08:13:20;27.03;46.27
80412;SHT30;69749;42.684;23.360;2023-07-08T08:15:46;27.08;45.86
80412;SHT30;69749;42.684;23.360;2023-07-08T08:18:11;27.20;46.24
80412;SHT30;69749;42.684;23.360;2023-07-08T08:20:36;27.24;46.54
80412;SHT30;69749;42.684;23.360;2023-07-08T08:23:04;27.25;45.32
80412;SHT30;69749;42.684;23.360;2023-07-08T08:25:31;27.37;45.35
80412;SHT30;69749;42.684;23.360;2023-07-08T08:27:57;27.48;44.18
80412;SHT30;69749;42.684;23.360;2023-07-08T08:30:22;27.14;44.15
80412;SHT30;69749;42.684;23.360;2023-07-08T08:32:48;26.60;45.42
80412;SHT30;69749;42.684;23.360;2023-07-08T08:35:13;26.83;46.17
80412;SHT30;69749;42.684;23.360;2023-07-08T08:37:38;26.84;45.37
80412;SHT30;69749;42.684;23.360;2023-07-08T08:40:04;27.00;45.97
80412;SHT30;69749;42.684;23.360;2023-07-08T08:42:44;27.25;45.89
80412;SHT30;69749;42.684;23.360;2023-07-08T08:45:17;27.48;44.82
80412;SHT30;69749;42.684;23.360;2023-07-08T08:47:48;27.72;46.09
80412;SHT30;69749;42.684;23.360;2023-07-08T08:50:35;27.81;44.81
80412;SHT30;69749;42.684;23.360;2023-07-08T08:53:05;27.69;44.87
80412;SHT30;69749;42.684;23.360;2023-07-08T08:55:31;27.90;45.86
80412;SHT30;69749;42.684;23.360;2023-07-08T09:00:58;27.90;43.90
80412;SHT30;69749;42.684;23.360;2023-07-08T09:06:00;28.17;43.45
80412;SHT30;69749;42.684;23.360;2023-07-08T09:08:34;28.20;44.12
80412;SHT30;69749;42.684;23.360;2023-07-08T09:11:21;28.18;43.60
80412;SHT30;69749;42.684;23.360;2023-07-08T09:13:50;28.03;44.08
80412;SHT30;69749;42.684;23.360;2023-07-08T09:16:35;27.99;43.77
80412;SHT30;69749;42.684;23.360;2023-07-08T09:25:35;28.02;45.24
80412;SHT30;69749;42.684;23.360;2023-07-08T09:28:02;28.18;44.23
80412;SHT30;69749;42.684;23.360;2023-07-08T09:30:28;28.28;42.76
80412;SHT30;69749;42.684;23.360;2023-07-08T09:32:57;28.26;42.19
80412;SHT30;69749;42.684;23.360;2023-07-08T09:35:26;27.58;43.36
80412;SHT30;69749;42.684;23.360;2023-07-08T09:37:53;27.86;43.86
80412;SHT30;69749;42.684;23.360;2023-07-08T09:40:29;28.02;42.90
80412;SHT30;69749;42.684;23.360;2023-07-08T09:45:46;28.26;43.16
80412;SHT30;69749;42.684;23.360;2023-07-08T09:48:23;28.40;44.12
80412;SHT30;69749;42.684;23.360;2023-07-08T09:50:52;28.18;41.68
80412;SHT30;69749;42.684;23.360;2023-07-08T09:53:18;28.03;42.03
80412;SHT30;69749;42.684;23.360;2023-07-08T09:55:45;27.79;43.42
80412;SHT30;69749;42.684;23.360;2023-07-08T09:58:23;27.90;43.10
80412;SHT30;69749;42.684;23.360;2023-07-08T10:00:54;28.02;43.29
80412;SHT30;69749;42.684;23.360;2023-07-08T10:03:32;28.10;42.61
80412;SHT30;69749;42.684;23.360;2023-07-08T10:05:58;28.17;43.05
80412;SHT30;69749;42.684;23.360;2023-07-08T10:08:37;28.14;41.88
80412;SHT30;69749;42.684;23.360;2023-07-08T10:11:27;28.20;42.71
80412;SHT30;69749;42.684;23.360;2023-07-08T10:13:53;28.27;42.78
80412;SHT30;69749;42.684;23.360;2023-07-08T10:16:28;28.24;41.20
80412;SHT30;69749;42.684;23.360;2023-07-08T10:18:54;28.39;41.87
80412;SHT30;69749;42.684;23.360;2023-07-08T10:24:37;28.17;41.20
80412;SHT30;69749;42.684;23.360;2023-07-08T10:27:18;28.20;41.14
80412;SHT30;69749;42.684;23.360;2023-07-08T10:33:23;28.00;42.34
80412;SHT30;69749;42.684;23.360;2023-07-08T10:38:59;28.06;41.85
80412;SHT30;69749;42.684;23.360;2023-07-08T10:44:44;28.13;42.57
80412;SHT30;69749;42.684;23.360;2023-07-08T10:50:19;28.17;41.47
80412;SHT30;69749;42.684;23.360;2023-07-08T11:06:37;27.69;42.21
80412;SHT30;69749;42.684;23.360;2023-07-08T11:09:07;27.72;42.14
80412;SHT30;69749;42.684;23.360;2023-07-08T11:14:29;27.85;42.57
80412;SHT30;69749;42.684;23.360;2023-07-08T11:17:08;27.89;42.60
80412;SHT30;69749;42.684;23.360;2023-07-08T11:19:38;28.04;41.74
80412;SHT30;69749;42.684;23.360;2023-07-08T11:22:10;28.07;41.69
80412;SHT30;69749;42.684;23.360;2023-07-08T11:24:46;28.03;40.82
80412;SHT30;69749;42.684;23.360;2023-07-08T11:29:55;28.21;40.89
80412;SHT30;69749;42.684;23.360;2023-07-08T11:32:24;28.24;40.99
80412;SHT30;69749;42.684;23.360;2023-07-08T11:34:52;28.28;41.74
80412;SHT30;69749;42.684;23.360;2023-07-08T11:37:19;28.30;41.05
80412;SHT30;69749;42.684;23.360;2023-07-08T11:39:53;28.30;41.28
80412;SHT30;69749;42.684;23.360;2023-07-08T11:42:41;28.48;41.15
80412;SHT30;69749;42.684;23.360;2023-07-08T11:47:50;28.67;40.04
80412;SHT30;69749;42.684;23.360;2023-07-08T11:50:36;28.51;40.20
80412;SHT30;69749;42.684;23.360;2023-07-08T11:53:31;28.44;40.64
80412;SHT30;69749;42.684;23.360;2023-07-08T11:55:59;28.53;41.59
80412;SHT30;69749;42.684;23.360;2023-07-08T12:03:46;28.23;42.36
80412;SHT30;69749;42.684;23.360;2023-07-08T12:08:55;28.37;39.61
80412;SHT30;69749;42.684;23.360;2023-07-08T12:11:31;28.32;39.97
80412;SHT30;69749;42.684;23.360;2023-07-08T12:14:03;28.33;40.18
80412;SHT30;69749;42.684;23.360;2023-07-08T12:16:30;28.27;40.28
80412;SHT30;69749;42.684;23.360;2023-07-08T12:18:58;28.14;40.46
80412;SHT30;69749;42.684;23.360;2023-07-08T12:21:26;28.07;40.67
80412;SHT30;69749;42.684;23.360;2023-07-08T12:23:52;28.18;41.41
80412;SHT30;69749;42.684;23.360;2023-07-08T12:26:18;28.20;40.36
80412;SHT30;69749;42.684;23.360;2023-07-08T12:28:43;28.20;40.82
80412;SHT30;69749;42.684;23.360;2023-07-08T12:31:15;28.18;41.30
80412;SHT30;69749;42.684;23.360;2023-07-08T12:33:41;28.07;40.14
80412;SHT30;69749;42.684;23.360;2023-07-08T12:36:09;28.16;40.60
80412;SHT30;69749;42.684;23.360;2023-07-08T12:38:42;28.12;40.11
80412;SHT30;69749;42.684;23.360;2023-07-08T12:41:15;28.23;40.25
80412;SHT30;69749;42.684;23.360;2023-07-08T12:43:41;28.34;40.96
80412;SHT30;69749;42.684;23.360;2023-07-08T12:46:09;28.45;41.85
80412;SHT30;69749;42.684;23.360;2023-07-08T12:48:36;28.50;40.61
80412;SHT30;69749;42.684;23.360;2023-07-08T12:51:03;28.51;40.12
80412;SHT30;69749;42.684;23.360;2023-07-08T12:53:28;28.61;40.58
80412;SHT30;69749;42.684;23.360;2023-07-08T12:55:56;28.62;40.84
80412;SHT30;69749;42.684;23.360;2023-07-08T12:58:28;28.67;40.19
80412;SHT30;69749;42.684;23.360;2023-07-08T13:00:55;28.62;40.60
80412;SHT30;69749;42.684;23.360;2023-07-08T13:03:33;28.44;40.11
80412;SHT30;69749;42.684;23.360;2023-07-08T13:06:01;28.32;40.19
80412;SHT30;69749;42.684;23.360;2023-07-08T13:08:30;28.21;40.61
80412;SHT30;69749;42.684;23.360;2023-07-08T13:10:58;28.10;40.78
80412;SHT30;69749;42.684;23.360;2023-07-08T13:13:34;28.10;40.51
80412;SHT30;69749;42.684;23.360;2023-07-08T13:16:00;28.13;41.57
80412;SHT30;69749;42.684;23.360;2023-07-08T13:20:58;28.12;40.04
80412;SHT30;69749;42.684;23.360;2023-07-08T13:23:24;28.13;40.47
80412;SHT30;69749;42.684;23.360;2023-07-08T13:25:51;28.04;40.07
80412;SHT30;69749;42.684;23.360;2023-07-08T13:28:37;28.04;40.14
80412;SHT30;69749;42.684;23.360;2023-07-08T13:31:16;28.16;41.15
80412;SHT30;69749;42.684;23.360;2023-07-08T13:33:47;28.24;39.76
80412;SHT30;69749;42.684;23.360;2023-07-08T13:36:16;28.13;40.17
80412;SHT30;69749;42.684;23.360;2023-07-08T13:38:42;28.02;40.93
80412;SHT30;69749;42.684;23.360;2023-07-08T13:41:08;28.02;41.71
80412;SHT30;69749;42.684;23.360;2023-07-08T13:43:37;28.03;40.61
80412;SHT30;69749;42.684;23.360;2023-07-08T13:46:04;28.09;41.05
80412;SHT30;69749;42.684;23.360;2023-07-08T13:48:38;27.82;41.29
80412;SHT30;69749;42.684;23.360;2023-07-08T13:51:19;27.76;42.24
80412;SHT30;69749;42.684;23.360;2023-07-08T13:53:51;27.81;42.38
80412;SHT30;69749;42.684;23.360;2023-07-08T13:56:27;27.86;44.08
80412;SHT30;69749;42.684;23.360;2023-07-08T13:59:02;27.95;41.63
80412;SHT30;69749;42.684;23.360;2023-07-08T14:01:29;27.95;42.37
80412;SHT30;69749;42.684;23.360;2023-07-08T14:03:56;28.00;41.49
80412;SHT30;69749;42.684;23.360;2023-07-08T14:06:29;28.09;40.66
80412;SHT30;69749;42.684;23.360;2023-07-08T14:08:59;27.92;40.40
80412;SHT30;69749;42.684;23.360;2023-07-08T14:11:24;27.85;41.28
80412;SHT30;69749;42.684;23.360;2023-07-08T14:13:50;27.96;42.25
80412;SHT30;69749;42.684;23.360;2023-07-08T14:16:23;28.03;41.35
80412;SHT30;69749;42.684;23.360;2023-07-08T14:18:49;28.09;42.76
80412;SHT30;69749;42.684;23.360;2023-07-08T14:21:15;28.14;41.74
80412;SHT30;69749;42.684;23.360;2023-07-08T14:23:40;28.16;42.80
80412;SHT30;69749;42.684;23.360;2023-07-08T14:26:12;28.24;41.78
80412;SHT30;69749;42.684;23.360;2023-07-08T14:28:38;28.37;41.61
80412;SHT30;69749;42.684;23.360;2023-07-08T14:31:08;28.12;40.73
80412;SHT30;69749;42.684;23.360;2023-07-08T14:33:34;28.00;41.24
80412;SHT30;69749;42.684;23.360;2023-07-08T14:36:00;28.00;41.28
80412;SHT30;69749;42.684;23.360;2023-07-08T14:38:25;28.10;41.64
80412;SHT30;69749;42.684;23.360;2023-07-08T14:40:50;28.12;41.97
80412;SHT30;69749;42.684;23.360;2023-07-08T14:43:20;28.13;41.25
80412;SHT30;69749;42.684;23.360;2023-07-08T14:45:53;28.12;41.00
80412;SHT30;69749;42.684;23.360;2023-07-08T14:48:18;28.12;41.61
80412;SHT30;69749;42.684;23.360;2023-07-08T14:50:44;28.17;42.93
80412;SHT30;69749;42.684;23.360;2023-07-08T14:53:10;28.17;41.04
80412;SHT30;69749;42.684;23.360;2023-07-08T14:55:36;28.10;41.28
80412;SHT30;69749;42.684;23.360;2023-07-08T14:58:03;28.09;41.63
80412;SHT30;69749;42.684;23.360;2023-07-08T15:00:29;28.00;40.73
80412;SHT30;69749;42.684;23.360;2023-07-08T15:02:55;27.97;41.24
80412;SHT30;69749;42.684;23.360;2023-07-08T15:05:25;27.95;40.82
80412;SHT30;69749;42.684;23.360;2023-07-08T15:07:56;27.89;41.04
80412;SHT30;69749;42.684;23.360;2023-07-08T15:10:26;27.86;41.86
80412;SHT30;69749;42.684;23.360;2023-07-08T15:12:52;27.83;41.68
80412;SHT30;69749;42.684;23.360;2023-07-08T15:15:29;27.81;42.01
80412;SHT30;69749;42.684;23.360;2023-07-08T15:17:56;27.76;42.23
80412;SHT30;69749;42.684;23.360;2023-07-08T15:20:23;27.75;42.84
80412;SHT30;69749;42.684;23.360;2023-07-08T15:22:49;27.61;41.03
80412;SHT30;69749;42.684;23.360;2023-07-08T15:25:15;27.51;41.31
80412;SHT30;69749;42.684;23.360;2023-07-08T15:27:52;27.54;42.55
80412;SHT30;69749;42.684;23.360;2023-07-08T15:30:21;27.52;42.26
80412;SHT30;69749;42.684;23.360;2023-07-08T15:32:47;27.54;42.13
80412;SHT30;69749;42.684;23.360;2023-07-08T15:35:15;27.52;42.72
80412;SHT30;69749;42.684;23.360;2023-07-08T15:37:42;27.46;42.79
80412;SHT30;69749;42.684;23.360;2023-07-08T15:40:08;27.49;42.94
80412;SHT30;69749;42.684;23.360;2023-07-08T15:42:37;27.45;43.51
80412;SHT30;69749;42.684;23.360;2023-07-08T15:45:13;27.45;43.11
80412;SHT30;69749;42.684;23.360;2023-07-08T15:47:39;27.42;42.68
80412;SHT30;69749;42.684;23.360;2023-07-08T15:50:13;27.31;42.28
80412;SHT30;69749;42.684;23.360;2023-07-08T15:52:40;27.24;42.73
80412;SHT30;69749;42.684;23.360;2023-07-08T15:55:07;27.17;43.73
80412;SHT30;69749;42.684;23.360;2023-07-08T15:57:35;27.17;43.83
80412;SHT30;69749;42.684;23.360;2023-07-08T16:00:02;27.17;43.84
80412;SHT30;69749;42.684;23.360;2023-07-08T16:02:29;27.11;43.08
80412;SHT30;69749;42.684;23.360;2023-07-08T16:04:55;27.07;42.63
80412;SHT30;69749;42.684;23.360;2023-07-08T16:07:21;27.00;43.19
80412;SHT30;69749;42.684;23.360;2023-07-08T16:09:49;26.87;43.32
80412;SHT30;69749;42.684;23.360;2023-07-08T16:12:20;26.91;43.40
80412;SHT30;69749;42.684;23.360;2023-07-08T16:14:46;26.87;43.16
80412;SHT30;69749;42.684;23.360;2023-07-08T16:17:12;26.80;43.22
80412;SHT30;69749;42.684;23.360;2023-07-08T16:19:37;26.75;43.76
80412;SHT30;69749;42.684;23.360;2023-07-08T16:22:03;26.70;43.91
80412;SHT30;69749;42.684;23.360;2023-07-08T16:24:30;26.69;43.07
80412;SHT30;69749;42.684;23.360;2023-07-08T16:26:56;26.64;43.58
80412;SHT30;69749;42.684;23.360;2023-07-08T16:29:21;26.57;43.54
80412;SHT30;69749;42.684;23.360;2023-07-08T16:31:48;26.53;44.18